createdAt,value
2022-09-30T00:00:32.840Z,13.00
2022-09-30T00:03:18.464Z,12.90
2022-09-30T00:06:08.622Z,12.90
2022-09-30T00:08:55.853Z,12.90
2022-09-30T00:11:42.625Z,13.00
2022-09-30T00:14:28.579Z,12.90
2022-09-30T00:17:14.232Z,12.90
2022-09-30T00:19:59.802Z,12.90
2022-09-30T00:22:45.304Z,12.80
2022-09-30T00:25:30.874Z,12.90
2022-09-30T00:28:17.065Z,12.80
2022-09-30T00:31:07.257Z,12.70
2022-09-30T00:34:08.478Z,12.70
2022-09-30T00:36:55.842Z,12.70
2022-09-30T00:39:41.759Z,12.70
2022-09-30T00:42:30.691Z,12.70
2022-09-30T00:45:18.127Z,12.60
2022-09-30T00:48:12.160Z,12.50
2022-09-30T00:50:58.444Z,12.60
2022-09-30T00:53:56.624Z,12.50
2022-09-30T00:56:46.283Z,12.50
2022-09-30T00:59:43.169Z,12.50
2022-09-30T01:02:29.237Z,12.50
2022-09-30T01:05:15.068Z,12.50
2022-09-30T01:08:03.774Z,12.50
2022-09-30T01:10:49.665Z,12.50
2022-09-30T01:13:37.210Z,12.50
2022-09-30T01:16:22.696Z,12.50
2022-09-30T01:19:20.362Z,12.40
2022-09-30T01:22:44.216Z,12.40
2022-09-30T01:26:03.609Z,12.30
2022-09-30T01:29:16.935Z,12.20
2022-09-30T01:32:37.780Z,12.20
2022-09-30T01:35:42.795Z,12.20
2022-09-30T01:38:45.508Z,12.20
2022-09-30T01:42:14.560Z,12.10
2022-09-30T01:45:51.138Z,12.10
2022-09-30T01:49:10.147Z,12.20
2022-09-30T01:51:59.182Z,12.20
2022-09-30T01:54:59.804Z,12.20
2022-09-30T01:57:48.343Z,12.10
2022-09-30T02:00:38.621Z,12.10
2022-09-30T02:03:33.921Z,12.10
2022-09-30T02:06:24.608Z,12.00
2022-09-30T02:09:27.057Z,12.00
2022-09-30T02:12:18.441Z,12.00
2022-09-30T02:15:10.980Z,12.00
2022-09-30T02:18:04.799Z,11.90
2022-09-30T02:20:55.594Z,11.90
2022-09-30T02:23:46.008Z,11.80
2022-09-30T02:26:38.140Z,11.70
2022-09-30T02:29:30.455Z,11.70
2022-09-30T02:32:30.604Z,11.70
2022-09-30T02:35:57.972Z,11.70
2022-09-30T02:38:49.043Z,11.70
2022-09-30T02:41:40.604Z,11.70
2022-09-30T02:44:26.721Z,11.80
2022-09-30T02:47:31.295Z,11.70
2022-09-30T02:50:27.075Z,11.70
2022-09-30T02:53:35.868Z,11.70
2022-09-30T02:56:46.110Z,11.70
2022-09-30T02:59:31.817Z,11.70
2022-09-30T03:02:17.940Z,11.60
2022-09-30T03:05:03.932Z,11.50
2022-09-30T03:07:49.727Z,11.50
2022-09-30T03:10:35.345Z,11.50
2022-09-30T03:13:39.121Z,11.60
2022-09-30T03:16:48.999Z,11.60
2022-09-30T03:19:45.920Z,11.50
2022-09-30T03:22:52.585Z,11.50
2022-09-30T03:25:59.002Z,11.40
2022-09-30T03:29:02.043Z,11.40
2022-09-30T03:32:12.583Z,11.50
2022-09-30T03:35:16.102Z,11.40
2022-09-30T03:38:27.243Z,11.40
2022-09-30T03:41:15.674Z,11.40
2022-09-30T03:44:09.945Z,11.40
2022-09-30T03:47:01.306Z,11.40
2022-09-30T03:49:51.078Z,11.40
2022-09-30T03:52:37.496Z,11.40
2022-09-30T03:55:24.405Z,11.30
2022-09-30T03:58:10.304Z,11.30
2022-09-30T04:00:57.218Z,11.30
2022-09-30T04:03:43.201Z,11.20
2022-09-30T04:06:28.737Z,11.30
2022-09-30T04:09:14.405Z,11.20
2022-09-30T04:12:00.612Z,11.20
2022-09-30T04:14:46.009Z,11.20
2022-09-30T04:17:32.006Z,11.20
2022-09-30T04:20:17.659Z,11.20
2022-09-30T04:23:03.866Z,11.10
2022-09-30T04:25:54.219Z,11.10
2022-09-30T04:28:39.851Z,11.10
2022-09-30T04:31:25.487Z,11.10
2022-09-30T04:34:11.955Z,11.10
2022-09-30T04:36:57.817Z,11.10
2022-09-30T04:39:44.248Z,11.10
2022-09-30T04:42:29.694Z,11.10
2022-09-30T04:45:15.508Z,11.10
2022-09-30T04:48:01.357Z,11.10
2022-09-30T04:50:47.275Z,11.10
2022-09-30T04:53:32.757Z,11.20
2022-09-30T04:56:18.380Z,11.10
2022-09-30T04:59:04.149Z,11.10
2022-09-30T05:01:49.607Z,11.10
2022-09-30T05:04:35.104Z,11.10
2022-09-30T05:07:20.673Z,11.10
2022-09-30T05:10:08.166Z,11.10
2022-09-30T05:12:54.152Z,11.20
2022-09-30T05:15:39.726Z,11.10
2022-09-30T05:18:28.466Z,11.40
2022-09-30T05:21:16.895Z,11.90
2022-09-30T05:24:03.288Z,12.30
2022-09-30T05:26:49.175Z,12.70
2022-09-30T05:29:35.070Z,13.20
2022-09-30T05:32:21.382Z,13.50
2022-09-30T05:35:07.830Z,13.80
2022-09-30T05:37:53.309Z,14.00
2022-09-30T05:40:41.936Z,14.20
2022-09-30T05:43:27.996Z,14.40
2022-09-30T05:46:15.163Z,14.50
2022-09-30T05:49:00.916Z,14.60
2022-09-30T05:51:46.771Z,14.70
2022-09-30T05:54:32.181Z,14.80
2022-09-30T05:57:17.720Z,14.90
2022-09-30T06:00:04.419Z,15.00
2022-09-30T06:02:57.392Z,15.20
2022-09-30T06:05:43.109Z,15.20
2022-09-30T06:08:28.812Z,15.30
2022-09-30T06:11:20.233Z,15.40
2022-09-30T06:14:06.073Z,15.40
2022-09-30T06:16:51.708Z,15.50
2022-09-30T06:19:37.465Z,15.60
2022-09-30T06:22:22.863Z,15.70
2022-09-30T06:25:08.606Z,15.60
2022-09-30T06:27:54.523Z,15.70
2022-09-30T06:30:40.005Z,15.70
2022-09-30T06:33:25.417Z,15.70
2022-09-30T06:36:10.950Z,15.70
2022-09-30T06:38:56.975Z,15.80
2022-09-30T06:41:44.204Z,15.80
2022-09-30T06:44:52.907Z,15.80
2022-09-30T06:47:39.542Z,15.80
2022-09-30T06:50:26.554Z,15.80
2022-09-30T06:53:13.126Z,15.90
2022-09-30T06:55:58.999Z,15.90
2022-09-30T06:58:45.626Z,15.90
2022-09-30T07:01:31.418Z,16.00
2022-09-30T07:04:16.876Z,16.10
2022-09-30T07:07:03.090Z,16.10
2022-09-30T07:09:48.642Z,16.10
2022-09-30T07:12:34.454Z,16.20
2022-09-30T07:15:23.756Z,16.20
2022-09-30T07:18:09.640Z,16.20
2022-09-30T07:20:56.482Z,16.20
2022-09-30T07:23:47.264Z,16.20
2022-09-30T07:26:33.444Z,16.20
2022-09-30T07:29:18.847Z,16.20
2022-09-30T07:32:04.572Z,16.30
2022-09-30T07:34:50.182Z,16.30
2022-09-30T07:37:36.140Z,16.30
2022-09-30T07:40:21.555Z,16.40
2022-09-30T07:43:06.827Z,16.40
2022-09-30T07:45:56.151Z,16.40
2022-09-30T07:48:47.093Z,16.50
2022-09-30T07:51:38.934Z,16.60
2022-09-30T07:54:31.685Z,16.60
2022-09-30T07:57:17.902Z,16.70
2022-09-30T08:00:22.993Z,16.70
2022-09-30T08:03:10.235Z,16.70
2022-09-30T08:05:55.854Z,16.80
2022-09-30T08:08:42.278Z,16.80
2022-09-30T08:11:28.052Z,16.80
2022-09-30T08:14:15.944Z,16.80
2022-09-30T08:17:01.673Z,16.90
2022-09-30T08:19:47.017Z,17.00
2022-09-30T08:22:32.740Z,17.00
2022-09-30T08:25:18.402Z,17.00
2022-09-30T08:28:04.034Z,17.00
2022-09-30T08:30:49.541Z,17.10
2022-09-30T08:33:35.569Z,17.10
2022-09-30T08:36:24.156Z,17.10
2022-09-30T08:39:11.007Z,17.10
2022-09-30T08:42:49.680Z,17.10
2022-09-30T08:45:42.858Z,17.10
2022-09-30T08:48:56.060Z,17.20
2022-09-30T08:51:47.647Z,17.20
2022-09-30T08:54:40.019Z,17.20
2022-09-30T08:57:32.368Z,17.30
2022-09-30T09:00:19.609Z,17.30
2022-09-30T09:03:05.138Z,17.40
2022-09-30T09:06:01.447Z,17.40
2022-09-30T09:08:53.417Z,17.50
2022-09-30T09:12:13.184Z,17.50
2022-09-30T09:15:01.715Z,17.60
2022-09-30T09:18:23.739Z,17.60
2022-09-30T09:21:21.207Z,17.60
2022-09-30T09:24:15.076Z,17.70
2022-09-30T09:27:13.190Z,17.70
2022-09-30T09:30:07.689Z,17.80
2022-09-30T09:33:00.669Z,17.80
2022-09-30T09:36:11.344Z,17.80
2022-09-30T09:39:03.001Z,17.90
2022-09-30T09:42:12.179Z,17.90
2022-09-30T09:45:15.650Z,18.00
2022-09-30T09:48:01.613Z,18.10
2022-09-30T09:51:18.283Z,18.20
2022-09-30T09:54:09.801Z,18.20
2022-09-30T09:56:55.280Z,18.30
2022-09-30T10:00:21.409Z,18.30
2022-09-30T10:03:21.273Z,18.30
2022-09-30T10:06:10.312Z,18.40
2022-09-30T10:08:57.005Z,18.40
2022-09-30T10:11:43.632Z,18.40
2022-09-30T10:14:29.446Z,18.50
2022-09-30T10:17:21.777Z,18.60
2022-09-30T10:20:28.327Z,18.60
2022-09-30T10:23:21.596Z,18.60
2022-09-30T10:26:18.561Z,18.70
2022-09-30T10:29:21.662Z,18.70
2022-09-30T10:32:09.478Z,18.80
2022-09-30T10:35:02.861Z,18.80
2022-09-30T10:37:53.683Z,18.90
2022-09-30T10:40:39.396Z,18.90
2022-09-30T10:43:39.521Z,19.00
2022-09-30T10:46:38.534Z,19.00
2022-09-30T10:49:39.421Z,19.10
2022-09-30T10:52:27.394Z,19.20
2022-09-30T10:55:19.328Z,19.20
2022-09-30T10:58:35.339Z,19.30
2022-09-30T11:01:36.116Z,19.30
2022-09-30T11:04:36.999Z,19.40
2022-09-30T11:07:41.164Z,19.50
2022-09-30T11:10:42.237Z,19.50
2022-09-30T11:13:57.084Z,19.50
2022-09-30T11:16:57.843Z,19.60
2022-09-30T11:20:07.294Z,20.80
2022-09-30T11:23:25.605Z,19.60
2022-09-30T11:26:20.217Z,19.70
2022-09-30T11:29:42.381Z,19.80
2022-09-30T11:32:46.259Z,19.80
2022-09-30T11:36:01.282Z,19.90
2022-09-30T11:38:55.619Z,20.00
2022-09-30T11:42:02.273Z,20.00
2022-09-30T11:44:58.030Z,20.10
2022-09-30T11:48:08.302Z,20.10
2022-09-30T11:51:24.819Z,20.10
2022-09-30T11:54:28.833Z,20.20
2022-09-30T11:57:30.327Z,20.30
2022-09-30T12:00:18.034Z,20.40
2022-09-30T12:03:20.151Z,20.50
2022-09-30T12:06:13.912Z,20.50
2022-09-30T12:09:08.209Z,20.50
2022-09-30T12:12:15.280Z,20.60
2022-09-30T12:15:05.803Z,20.60
2022-09-30T12:18:06.480Z,20.60
2022-09-30T12:20:59.560Z,20.70
2022-09-30T12:23:53.273Z,20.70
2022-09-30T12:26:40.814Z,20.80
2022-09-30T12:29:56.594Z,20.80
2022-09-30T12:33:07.127Z,20.90
2022-09-30T12:36:27.202Z,20.90
2022-09-30T12:39:48.021Z,20.90
2022-09-30T12:43:04.841Z,20.90
2022-09-30T12:46:02.937Z,20.90
2022-09-30T12:48:54.053Z,21.00
2022-09-30T12:51:44.940Z,21.00
2022-09-30T12:54:38.234Z,21.00
2022-09-30T12:57:31.278Z,21.20
2022-09-30T13:00:23.008Z,21.20
2022-09-30T13:03:15.889Z,21.30
2022-09-30T13:06:07.357Z,21.30
2022-09-30T13:09:07.929Z,21.40
2022-09-30T13:11:59.391Z,21.50
2022-09-30T13:14:45.293Z,21.50
2022-09-30T13:17:31.101Z,21.60
2022-09-30T13:20:56.526Z,21.60
2022-09-30T13:23:44.609Z,21.70
2022-09-30T13:26:33.832Z,21.70
2022-09-30T13:29:19.903Z,21.80
2022-09-30T13:32:07.054Z,21.90
2022-09-30T13:34:57.294Z,22.00
2022-09-30T13:37:43.111Z,21.90
2022-09-30T13:40:50.175Z,21.80
2022-09-30T13:43:42.596Z,21.80
2022-09-30T13:46:49.484Z,21.90
2022-09-30T13:49:47.357Z,22.00
2022-09-30T13:52:35.371Z,22.10
2022-09-30T13:55:32.289Z,22.20
2022-09-30T13:59:09.874Z,22.30
2022-09-30T14:02:33.557Z,22.40
2022-09-30T14:05:37.069Z,22.50
2022-09-30T14:08:50.456Z,22.50
2022-09-30T14:12:12.380Z,22.60
2022-09-30T14:15:22.617Z,22.60
2022-09-30T14:18:29.154Z,22.50
2022-09-30T14:21:34.111Z,22.50
2022-09-30T14:24:25.741Z,22.60
2022-09-30T14:27:36.029Z,22.70
2022-09-30T14:30:26.705Z,22.80
2022-09-30T14:33:24.329Z,22.70
2022-09-30T14:36:23.041Z,22.50
2022-09-30T14:39:16.976Z,22.50
2022-09-30T14:42:02.819Z,22.50
2022-09-30T14:44:49.248Z,22.50
2022-09-30T14:47:38.533Z,22.60
2022-09-30T14:50:33.737Z,22.60
2022-09-30T14:53:33.322Z,22.50
2022-09-30T14:56:22.278Z,22.30
2022-09-30T14:59:37.084Z,22.20
2022-09-30T15:02:24.953Z,22.10
2022-09-30T15:05:14.427Z,22.20
2022-09-30T15:08:00.333Z,22.10
2022-09-30T15:10:52.002Z,22.00
2022-09-30T15:13:39.411Z,22.00
2022-09-30T15:16:31.008Z,21.80
2022-09-30T15:19:35.029Z,21.80
2022-09-30T15:22:21.664Z,21.90
2022-09-30T15:25:08.997Z,22.00
2022-09-30T15:27:54.905Z,22.10
2022-09-30T15:30:43.524Z,22.20
2022-09-30T15:33:31.863Z,22.00
2022-09-30T15:36:18.767Z,21.90
2022-09-30T15:39:06.160Z,21.80
2022-09-30T15:41:52.476Z,21.80
2022-09-30T15:44:39.083Z,21.70
2022-09-30T15:47:27.076Z,21.60
2022-09-30T15:50:35.832Z,21.50
2022-09-30T15:53:45.162Z,21.50
2022-09-30T15:56:35.060Z,21.40
2022-09-30T15:59:22.660Z,21.40
2022-09-30T16:02:11.293Z,21.30
2022-09-30T16:04:59.269Z,21.20
2022-09-30T16:07:44.963Z,21.20
2022-09-30T16:10:30.620Z,21.10
2022-09-30T16:13:16.686Z,21.10
2022-09-30T16:16:02.500Z,21.00
2022-09-30T16:18:49.877Z,20.90
2022-09-30T16:21:52.682Z,20.90
2022-09-30T16:24:42.383Z,20.80
2022-09-30T16:27:31.262Z,20.70
2022-09-30T16:30:18.942Z,20.60
2022-09-30T16:33:06.224Z,20.60
2022-09-30T16:35:51.847Z,20.60
2022-09-30T16:38:37.921Z,20.50
2022-09-30T16:41:25.249Z,20.50
2022-09-30T16:44:10.849Z,20.40
2022-09-30T16:46:56.648Z,20.30
2022-09-30T16:49:43.160Z,20.30
2022-09-30T16:52:28.815Z,20.20
2022-09-30T16:58:06.000Z,20.20
2022-09-30T17:00:52.434Z,20.10
2022-09-30T17:03:38.156Z,20.10
2022-09-30T17:06:32.119Z,20.10
2022-09-30T17:09:18.179Z,20.10
2022-09-30T17:12:03.595Z,20.00
2022-09-30T17:14:49.143Z,20.00
2022-09-30T17:17:34.670Z,19.90
2022-09-30T17:20:21.133Z,19.90
2022-09-30T17:23:07.650Z,19.90
2022-09-30T17:25:54.671Z,19.80
2022-09-30T17:28:40.522Z,19.80
2022-09-30T17:31:26.205Z,19.70
2022-09-30T17:34:11.599Z,19.70
2022-09-30T17:36:57.209Z,19.60
2022-09-30T17:39:43.102Z,19.60
2022-09-30T17:42:47.088Z,19.50
2022-09-30T17:45:33.006Z,19.50
2022-09-30T17:48:18.836Z,19.40
2022-09-30T17:51:06.077Z,19.40
2022-09-30T17:53:51.648Z,19.30
2022-09-30T17:56:38.975Z,19.30
2022-09-30T17:59:26.909Z,19.20
2022-09-30T18:02:17.613Z,19.20
2022-09-30T18:05:03.964Z,19.20
2022-09-30T18:07:49.700Z,19.10
2022-09-30T18:10:37.450Z,19.10
2022-09-30T18:13:24.739Z,19.10
2022-09-30T18:16:10.165Z,19.10
2022-09-30T18:18:56.621Z,19.00
2022-09-30T18:21:42.192Z,19.00
2022-09-30T18:24:46.341Z,19.00
2022-09-30T18:27:33.921Z,19.00
2022-09-30T18:30:21.183Z,19.10
2022-09-30T18:33:07.455Z,19.10
2022-09-30T18:35:53.178Z,19.10
2022-09-30T18:38:38.736Z,19.00
2022-09-30T18:41:25.872Z,19.00
2022-09-30T18:44:11.938Z,19.00
2022-09-30T18:46:58.561Z,19.00
2022-09-30T18:49:44.703Z,19.00
2022-09-30T18:52:30.197Z,19.00
2022-09-30T18:55:15.756Z,19.00
2022-09-30T18:58:01.153Z,19.00
2022-09-30T19:00:46.700Z,19.00
2022-09-30T19:03:33.101Z,19.00
2022-09-30T19:06:19.117Z,19.00
2022-09-30T19:09:07.951Z,18.90
2022-09-30T19:11:53.406Z,18.90
2022-09-30T19:14:38.859Z,18.90
2022-09-30T19:17:26.330Z,18.90
2022-09-30T19:20:13.991Z,18.80
2022-09-30T19:22:59.654Z,18.80
2022-09-30T19:25:45.356Z,18.80
2022-09-30T19:28:31.327Z,18.80
2022-09-30T19:31:19.965Z,18.80
2022-09-30T19:34:06.331Z,18.80
2022-09-30T19:36:56.314Z,18.80
2022-09-30T19:39:45.840Z,18.80
2022-09-30T19:42:32.526Z,18.80
2022-09-30T19:45:24.086Z,18.80
2022-09-30T19:48:10.985Z,18.80
2022-09-30T19:51:14.722Z,18.80
2022-09-30T19:54:07.616Z,18.80
2022-09-30T19:56:53.787Z,18.80
2022-09-30T19:59:39.507Z,18.80
2022-09-30T20:02:25.381Z,18.80
2022-09-30T20:05:11.191Z,18.80
2022-09-30T20:07:56.848Z,18.80
2022-09-30T20:10:42.281Z,18.80
2022-09-30T20:13:27.935Z,18.80
2022-09-30T20:16:15.288Z,18.80
2022-09-30T20:19:00.779Z,18.80
2022-09-30T20:21:50.115Z,18.80
2022-09-30T20:24:36.134Z,18.80
2022-09-30T20:27:21.671Z,18.80
2022-09-30T20:30:07.809Z,18.70
2022-09-30T20:32:53.400Z,18.70
2022-09-30T20:35:38.920Z,18.70
2022-09-30T20:38:24.986Z,18.70
2022-09-30T20:41:10.960Z,18.70
2022-09-30T20:43:56.897Z,18.70
2022-09-30T20:46:43.237Z,18.70
2022-09-30T20:49:29.833Z,18.60
2022-09-30T20:52:15.677Z,18.70
2022-09-30T20:55:00.988Z,18.60
2022-09-30T20:57:46.367Z,18.60
2022-09-30T21:00:36.614Z,18.60
2022-09-30T21:03:23.167Z,18.60
2022-09-30T21:06:12.974Z,18.60
2022-09-30T21:09:00.675Z,18.60
2022-09-30T21:11:46.270Z,18.50
2022-09-30T21:14:31.906Z,18.50
2022-09-30T21:17:17.654Z,18.50
2022-09-30T21:20:03.390Z,18.50
2022-09-30T21:22:48.980Z,18.50
2022-09-30T21:25:34.810Z,18.50
2022-09-30T21:28:22.362Z,18.50
2022-09-30T21:31:14.441Z,18.50
2022-09-30T21:34:00.248Z,18.40
2022-09-30T21:36:46.401Z,18.40
2022-09-30T21:39:32.037Z,18.40
2022-09-30T21:42:18.966Z,18.40
2022-09-30T21:45:05.462Z,18.40
2022-09-30T21:47:51.343Z,18.40
2022-09-30T21:50:37.283Z,18.40
2022-09-30T21:53:27.384Z,18.40
2022-09-30T21:56:13.043Z,18.40
2022-09-30T21:58:58.869Z,18.40
2022-09-30T22:01:45.331Z,18.30
2022-09-30T22:04:31.061Z,18.30
2022-09-30T22:07:22.519Z,18.30
2022-09-30T22:10:09.990Z,18.30
2022-09-30T22:12:56.051Z,18.30
2022-09-30T22:15:44.737Z,18.30
2022-09-30T22:18:32.183Z,18.30
2022-09-30T22:21:17.842Z,18.30
2022-09-30T22:24:05.707Z,18.20
2022-09-30T22:26:51.803Z,18.20
2022-09-30T22:29:37.576Z,17.70
2022-09-30T22:32:22.921Z,17.30
2022-09-30T22:35:28.571Z,17.10
2022-09-30T22:38:14.863Z,16.90
2022-09-30T22:41:00.437Z,16.60
2022-09-30T22:43:46.140Z,16.50
2022-09-30T22:46:36.850Z,16.40
2022-09-30T22:49:24.368Z,16.30
2022-09-30T22:52:09.888Z,16.20
2022-09-30T22:54:55.380Z,16.20
2022-09-30T22:57:41.650Z,16.10
2022-09-30T23:00:27.163Z,16.00
2022-09-30T23:03:12.554Z,15.90
2022-09-30T23:06:02.584Z,15.90
2022-09-30T23:08:48.832Z,15.90
2022-09-30T23:11:35.693Z,15.80
2022-09-30T23:14:22.715Z,15.70
2022-09-30T23:17:08.075Z,15.70
2022-09-30T23:19:53.636Z,15.80
2022-09-30T23:22:39.063Z,15.80
2022-09-30T23:25:24.532Z,16.20
2022-09-30T23:28:10.051Z,15.80
2022-09-30T23:30:57.340Z,15.70
2022-09-30T23:33:49.084Z,15.60
2022-09-30T23:36:36.996Z,15.60
2022-09-30T23:39:22.788Z,15.60
2022-09-30T23:42:08.309Z,15.60
2022-09-30T23:44:53.917Z,15.50
2022-09-30T23:47:39.388Z,15.50
2022-09-30T23:50:25.415Z,15.50
2022-09-30T23:53:11.735Z,15.50
2022-09-30T23:56:02.926Z,15.50
2022-09-30T23:58:50.425Z,15.40
